Time;durP1;ratioP1;P1;durP2;ratioP2;P2;SDS_P1;SDS_P2;PMS_P1;PMS_P2;Temp;Humidity;BMP_temperature;BMP_pressure;BME280_temperature;BME280_humidity;BME280_pressure;Samples;Min_cycle;Max_cycle;Signal;HPM_P1;HPM_P2
2023/01/02 00:00:52;;;;;;;8.30;3.80;;;;;;;8.50;78.11;99826.41;1656079;84;20996;-85
2023/01/02 00:03:21;;;;;;;10.03;3.45;;;;;;;8.53;78.15;99831.50;1636087;85;21549;-84
2023/01/02 00:05:47;;;;;;;8.45;3.33;;;;;;;8.54;78.00;99833.18;1634187;86;20978;-83
2023/01/02 00:08:16;;;;;;;8.23;3.70;;;;;;;8.51;78.15;99835.91;1631513;86;21108;-86
2023/01/02 00:10:43;;;;;;;5.97;2.87;;;;;;;8.56;78.31;99836.59;1636196;86;21046;-85
2023/01/02 00:13:10;;;;;;;6.78;3.12;;;;;;;8.58;78.21;99833.48;1631074;86;21047;-85
2023/01/02 00:15:36;;;;;;;7.97;3.47;;;;;;;8.59;78.34;99836.47;1632116;86;21084;-81
2023/01/02 00:18:03;;;;;;;10.30;3.03;;;;;;;8.63;78.39;99838.06;1636594;86;21090;-85
2023/01/02 00:20:29;;;;;;;4.87;2.85;;;;;;;8.61;78.24;99842.47;1637064;86;21509;-85
2023/01/02 00:22:56;;;;;;;7.17;3.50;;;;;;;8.63;78.46;99839.83;1632795;86;20992;-86
2023/01/02 00:25:23;;;;;;;6.83;3.57;;;;;;;8.67;78.58;99822.72;1639915;86;20978;-85
2023/01/02 00:27:49;;;;;;;4.95;3.35;;;;;;;8.74;78.62;99822.89;1636497;86;21099;-85
2023/01/02 00:30:16;;;;;;;5.50;3.40;;;;;;;8.82;78.63;99826.94;1634451;86;21111;-85
2023/01/02 00:32:43;;;;;;;4.92;2.72;;;;;;;8.83;78.58;99823.45;1635533;86;21169;-85
2023/01/02 00:35:09;;;;;;;8.53;3.13;;;;;;;8.86;78.58;99820.73;1642406;86;21018;-85
2023/01/02 00:37:36;;;;;;;4.97;2.77;;;;;;;8.87;78.56;99822.41;1633406;86;21078;-85
2023/01/02 00:40:03;;;;;;;5.90;2.93;;;;;;;8.86;78.52;99823.33;1632916;86;21028;-85
2023/01/02 00:42:30;;;;;;;4.10;2.87;;;;;;;8.83;78.43;99828.66;1636258;86;21451;-85
2023/01/02 00:44:56;;;;;;;8.83;3.20;;;;;;;8.79;78.50;99824.45;1634640;86;21443;-85
2023/01/02 00:47:23;;;;;;;6.72;2.80;;;;;;;8.79;78.52;99821.85;1634935;85;21007;-85
2023/01/02 00:49:50;;;;;;;5.08;2.80;;;;;;;8.78;78.56;99817.56;1628375;86;21095;-85
2023/01/02 00:52:16;;;;;;;3.10;2.35;;;;;;;8.70;78.27;99813.48;1639787;86;21151;-85
2023/01/02 00:54:43;;;;;;;6.03;2.47;;;;;;;8.57;78.33;99822.69;1632225;86;21181;-85
2023/01/02 00:57:09;;;;;;;6.13;2.77;;;;;;;8.50;78.45;99821.20;1633150;86;21094;-84
2023/01/02 00:59:36;;;;;;;4.67;2.83;;;;;;;8.52;78.74;99823.31;1626834;86;21061;-86
2023/01/02 01:02:03;;;;;;;6.37;2.62;;;;;;;8.52;78.62;99816.80;1620585;87;21539;-84
2023/01/02 01:04:35;;;;;;;4.93;2.80;;;;;;;8.48;78.63;99819.10;1616963;87;20989;-85
2023/01/02 01:07:02;;;;;;;5.92;2.87;;;;;;;8.42;78.50;99819.34;1677140;84;21578;-85
2023/01/02 01:09:29;;;;;;;4.37;2.60;;;;;;;8.29;78.46;99815.86;1676374;84;20925;-87
2023/01/02 01:11:55;;;;;;;4.45;3.05;;;;;;;8.22;78.53;99803.97;1678059;83;20980;-85
2023/01/02 01:14:22;;;;;;;5.90;3.08;;;;;;;8.14;78.69;99811.20;1679259;83;21070;-86
2023/01/02 01:16:49;;;;;;;4.40;3.00;;;;;;;8.12;78.80;99810.39;1677148;84;20984;-86
2023/01/02 01:19:15;;;;;;;4.23;2.37;;;;;;;8.11;78.90;99810.01;1647310;85;20971;-87
2023/01/02 01:21:42;;;;;;;6.80;2.95;;;;;;;8.17;79.11;99805.88;1644229;85;21664;-86
2023/01/02 01:24:08;;;;;;;5.17;2.85;;;;;;;8.22;79.21;99798.77;1645008;85;20988;-86
2023/01/02 01:26:35;;;;;;;5.77;3.10;;;;;;;8.28;79.30;99803.73;1618162;86;21057;-85
2023/01/02 01:29:02;;;;;;;4.80;2.93;;;;;;;8.30;79.11;99804.55;1648756;85;20972;-85
2023/01/02 01:31:28;;;;;;;5.45;2.85;;;;;;;8.28;79.11;99810.24;1679332;83;21001;-86
2023/01/02 01:33:55;;;;;;;7.12;2.80;;;;;;;8.25;79.16;99811.66;1681843;83;21012;-86
2023/01/02 01:36:24;;;;;;;4.92;2.52;;;;;;;8.26;79.25;99813.38;1679746;84;21071;-86
2023/01/02 01:38:50;;;;;;;5.97;2.98;;;;;;;8.24;79.27;99810.43;1676553;83;21057;-86
2023/01/02 01:41:21;;;;;;;4.50;2.67;;;;;;;8.21;79.25;99798.38;1677804;83;21044;-86
2023/01/02 01:44:00;;;;;;;4.92;2.60;;;;;;;8.22;79.40;99807.88;1673467;83;21083;-86
2023/01/02 01:46:42;;;;;;;6.67;2.70;;;;;;;8.22;79.39;99801.37;1678795;84;21056;-86
2023/01/02 01:49:22;;;;;;;4.08;2.17;;;;;;;8.18;79.30;99796.35;1677012;83;20972;-86
2023/01/02 01:52:00;;;;;;;4.37;2.60;;;;;;;8.17;79.46;99795.48;1674978;83;20984;-86
2023/01/02 01:54:31;;;;;;;4.65;2.50;;;;;;;8.15;79.45;99786.91;1677688;83;20996;-86
2023/01/02 01:57:03;;;;;;;5.33;2.90;;;;;;;8.16;79.59;99788.59;1675165;84;20993;-86
2023/01/02 01:59:30;;;;;;;6.53;2.95;;;;;;;8.20;79.74;99790.16;1677775;83;20987;-86
2023/01/02 02:01:57;;;;;;;4.37;2.20;;;;;;;8.21;79.71;99789.28;1614797;86;21010;-86
2023/01/02 02:04:29;;;;;;;3.98;2.30;;;;;;;8.23;79.71;99792.68;1633830;85;21044;-85
2023/01/02 02:06:54;;;;;;;2.62;1.98;;;;;;;8.20;79.68;99789.31;1657718;85;20997;-85
2023/01/02 02:09:32;;;;;;;5.12;2.30;;;;;;;8.16;79.62;99795.55;1655790;84;20971;-85
2023/01/02 02:11:58;;;;;;;4.25;2.00;;;;;;;8.15;79.83;99799.91;1662175;84;20985;-85
2023/01/02 02:14:25;;;;;;;3.93;2.50;;;;;;;8.18;79.97;99799.80;1652000;85;21472;-86
2023/01/02 02:17:00;;;;;;;3.87;2.50;;;;;;;8.19;79.88;99804.55;1656820;84;21053;-85
2023/01/02 02:19:44;;;;;;;5.78;2.00;;;;;;;8.19;80.05;99801.48;1660263;84;21066;-85
2023/01/02 02:22:47;;;;;;;5.92;2.37;;;;;;;8.23;80.05;99797.88;1657108;85;21079;-85
2023/01/02 02:25:34;;;;;;;3.67;2.27;;;;;;;8.28;80.27;99795.94;1631544;86;20996;-84
2023/01/02 02:28:28;;;;;;;4.97;2.40;;;;;;;8.38;80.34;99782.61;1657821;84;20984;-84
2023/01/02 02:31:33;;;;;;;4.35;2.27;;;;;;;8.38;80.14;99774.80;1666417;84;20968;-85
2023/01/02 02:34:27;;;;;;;3.52;2.00;;;;;;;8.39;80.36;99779.13;1634779;86;21549;-85
2023/01/02 02:37:08;;;;;;;4.97;2.60;;;;;;;8.39;80.36;99779.13;1627717;86;21057;-83
2023/01/02 02:39:48;;;;;;;4.53;2.50;;;;;;;8.41;80.62;99785.13;1632448;86;20988;-84
2023/01/02 02:42:47;;;;;;;6.78;3.25;;;;;;;8.44;80.55;99772.84;1636869;86;21079;-85
2023/01/02 02:45:28;;;;;;;4.70;2.52;;;;;;;8.47;80.46;99769.28;1622852;87;21027;-85
2023/01/02 02:48:26;;;;;;;4.65;2.60;;;;;;;8.49;80.73;99772.68;1628653;87;20988;-85
2023/01/02 02:51:03;;;;;;;4.65;2.10;;;;;;;8.44;80.85;99761.59;1623064;86;21442;-84
2023/01/02 02:53:32;;;;;;;;;;;;;;;8.45;81.05;99760.67;1629226;87;21068;-85
2023/01/02 02:56:02;;;;;;;4.83;1.60;;;;;;;8.54;81.25;99753.81;1627155;87;20194;-85
2023/01/02 02:58:29;;;;;;;3.83;2.40;;;;;;;8.60;81.19;99744.48;1620016;87;21011;-85
2023/01/02 03:01:06;;;;;;;2.47;1.80;;;;;;;8.63;81.04;99747.43;1623978;87;21518;-85
2023/01/02 03:03:33;;;;;;;4.33;1.87;;;;;;;8.60;81.01;99750.99;1615246;88;21001;-85
2023/01/02 03:06:14;;;;;;;4.97;2.52;;;;;;;8.58;81.00;99743.69;1612466;88;21050;-84
2023/01/02 03:09:12;;;;;;;2.87;1.82;;;;;;;8.61;81.19;99745.33;1629599;86;21539;-85
2023/01/02 03:11:59;;;;;;;4.22;1.85;;;;;;;8.66;81.29;99751.21;1631903;86;21001;-85
2023/01/02 03:14:43;;;;;;;4.22;2.08;;;;;;;8.71;81.36;99750.13;1641052;86;21477;-85
2023/01/02 03:18:03;;;;;;;5.05;2.05;;;;;;;8.77;81.40;99742.98;1663437;83;21029;-85
2023/01/02 03:20:40;;;;;;;4.37;2.45;;;;;;;8.77;81.39;99742.98;1674287;83;21472;-83
2023/01/02 03:23:20;;;;;;;5.37;2.25;;;;;;;8.77;81.40;99737.78;1679842;83;21060;-85
2023/01/02 03:25:47;;;;;;;2.80;2.08;;;;;;;8.81;81.54;99736.73;1673634;83;21445;-85
2023/01/02 03:28:17;;;;;;;3.67;2.20;;;;;;;8.89;81.61;99745.09;1672033;83;21905;-86
2023/01/02 03:30:47;;;;;;;4.87;2.08;;;;;;;8.92;81.69;99737.16;1669044;83;20984;-86
2023/01/02 03:33:17;;;;;;;3.83;2.02;;;;;;;8.98;81.74;99734.30;1671707;83;21016;-84
2023/01/02 03:35:54;;;;;;;6.90;1.98;;;;;;;8.98;81.63;99731.69;1673526;83;21054;-84
2023/01/02 03:38:43;;;;;;;4.05;2.02;;;;;;;8.97;81.57;99724.80;1673493;83;21539;-86
2023/01/02 03:41:20;;;;;;;5.72;2.50;;;;;;;8.97;81.65;99727.41;1671662;83;20951;-86
2023/01/02 03:43:50;;;;;;;5.20;2.65;;;;;;;8.96;81.75;99717.88;1674692;83;20973;-85
2023/01/02 03:46:55;;;;;;;4.35;2.60;;;;;;;8.98;81.84;99713.46;1644408;85;20964;-85
2023/01/02 03:49:33;;;;;;;7.22;2.33;;;;;;;9.01;81.84;99700.31;1676241;83;20942;-86
2023/01/02 03:52:00;;;;;;;5.08;2.25;;;;;;;9.01;81.83;99700.31;1674495;83;20980;-86
2023/01/02 03:54:29;;;;;;;4.93;2.23;;;;;;;9.06;81.83;99705.34;1671645;83;20984;-87
2023/01/02 03:57:04;;;;;;;7.37;2.12;;;;;;;9.02;81.82;99702.03;1680056;83;20972;-86
2023/01/02 03:59:54;;;;;;;5.35;2.40;;;;;;;9.04;81.84;99708.00;1678698;83;21005;-86
2023/01/02 04:02:50;;;;;;;6.03;2.37;;;;;;;9.06;81.97;99703.58;1654868;83;21065;-85
2023/01/02 04:05:42;;;;;;;6.15;2.40;;;;;;;9.05;82.01;99699.30;1641575;84;20984;-85
2023/01/02 04:08:28;;;;;;;4.08;2.15;;;;;;;9.03;82.04;99697.66;1659926;84;21033;-85
2023/01/02 04:11:00;;;;;;;2.90;2.05;;;;;;;9.06;82.30;99693.16;1618379;84;21031;-85
2023/01/02 04:13:31;;;;;;;5.47;2.40;;;;;;;9.07;82.23;99687.03;1653264;84;21066;-85
2023/01/02 04:16:00;;;;;;;3.80;2.00;;;;;;;9.09;82.39;99690.43;1655213;84;21524;-86
2023/01/02 04:18:31;;;;;;;4.53;2.40;;;;;;;9.14;82.42;99688.48;1637604;84;21014;-86
2023/01/02 04:21:03;;;;;;;5.35;2.47;;;;;;;9.14;82.24;99680.67;1649533;84;20999;-86
2023/01/02 04:23:44;;;;;;;3.62;2.10;;;;;;;9.13;82.33;99676.38;1653084;84;20995;-86
2023/01/02 04:26:15;;;;;;;4.92;2.35;;;;;;;9.12;82.39;99681.18;1655501;84;20985;-85
2023/01/02 04:28:42;;;;;;;4.28;1.98;;;;;;;9.15;82.50;99679.75;1657417;84;20998;-84
2023/01/02 04:31:20;;;;;;;4.45;2.40;;;;;;;9.15;82.52;99678.44;1658615;84;20978;-86
2023/01/02 04:33:58;;;;;;;4.55;2.12;;;;;;;9.18;82.63;99673.56;1652031;84;21533;-86
2023/01/02 04:36:24;;;;;;;;;;;;;;;9.19;82.64;99668.30;1663498;84;21112;-86
2023/01/02 04:38:51;;;;;;;5.67;2.20;;;;;;;9.18;82.83;99663.14;1666909;84;20126;-87
2023/01/02 04:41:27;;;;;;;5.00;2.25;;;;;;;9.16;82.76;99660.62;1657612;84;20977;-85
2023/01/02 04:43:56;;;;;;;4.92;2.52;;;;;;;9.16;82.80;99667.59;1658501;84;20958;-86
2023/01/02 04:46:24;;;;;;;4.40;2.50;;;;;;;9.19;82.80;99663.09;1651157;84;21033;-84
2023/01/02 04:48:50;;;;;;;4.45;3.05;;;;;;;9.19;82.94;99659.64;1652865;84;20984;-86
2023/01/02 04:51:17;;;;;;;6.78;2.83;;;;;;;9.21;82.85;99653.05;1666040;83;21060;-85
2023/01/02 04:53:49;;;;;;;4.55;3.00;;;;;;;9.23;83.00;99644.72;1651892;84;20994;-85
2023/01/02 04:56:16;;;;;;;6.42;2.80;;;;;;;9.25;83.07;99639.00;1653897;84;21508;-87
2023/01/02 04:58:44;;;;;;;6.33;3.03;;;;;;;9.27;83.04;99631.51;1653621;84;21444;-85
2023/01/02 05:01:16;;;;;;;5.97;3.17;;;;;;;9.28;83.07;99634.95;1629479;85;21517;-86
2023/01/02 05:03:45;;;;;;;5.25;2.65;;;;;;;9.31;83.16;99629.61;1672620;83;20960;-86
2023/01/02 05:06:12;;;;;;;6.15;3.00;;;;;;;9.31;83.14;99625.23;1657286;83;20931;-86
2023/01/02 05:08:39;;;;;;;8.48;2.87;;;;;;;9.34;83.29;99634.68;1685042;83;20971;-86
2023/01/02 05:11:13;;;;;;;5.00;2.45;;;;;;;9.37;83.31;99624.12;1683120;83;20985;-86
2023/01/02 05:13:39;;;;;;;4.33;2.30;;;;;;;9.40;83.35;99618.77;1676988;83;20983;-86
2023/01/02 05:16:07;;;;;;;5.40;2.50;;;;;;;9.42;83.30;99616.95;1686563;83;21637;-85
2023/01/02 05:18:34;;;;;;;6.78;4.28;;;;;;;9.37;83.14;99608.48;1686037;83;21059;-86
2023/01/02 05:23:47;;;;;;;7.08;2.83;;;;;;;9.35;83.30;99599.88;1683719;83;20949;-85
2023/01/02 05:23:50;;;;;;;5.97;2.72;;;;;;;9.37;83.47;99594.16;1617651;87;20998;-85
2023/01/02 05:26:17;;;;;;;8.78;4.15;;;;;;;9.44;83.62;99596.89;1663992;85;20956;-86
2023/01/02 05:28:44;;;;;;;3.75;2.42;;;;;;;9.44;83.42;99595.59;1656794;84;21037;-86
2023/01/02 05:31:11;;;;;;;6.53;2.65;;;;;;;9.43;83.49;99584.76;1649168;85;20974;-85
2023/01/02 05:33:37;;;;;;;3.60;2.35;;;;;;;9.43;83.59;99576.94;1637262;85;20970;-86
2023/01/02 05:36:06;;;;;;;5.70;2.60;;;;;;;9.44;83.62;99576.05;1659699;85;20945;-86
2023/01/02 05:38:34;;;;;;;6.12;2.70;;;;;;;9.44;83.62;99579.95;1658827;85;20981;-85
2023/01/02 05:41:04;;;;;;;4.05;2.33;;;;;;;9.44;83.65;99573.44;1658605;85;21413;-86
2023/01/02 05:43:32;;;;;;;7.08;2.80;;;;;;;9.43;83.71;99561.30;1685813;83;21439;-87
2023/01/02 05:46:11;;;;;;;7.03;3.20;;;;;;;9.45;83.84;99569.91;1688353;83;21027;-86
2023/01/02 05:48:39;;;;;;;5.45;2.87;;;;;;;9.43;83.77;99561.30;1682837;83;21003;-86
2023/01/02 05:51:09;;;;;;;5.50;3.22;;;;;;;9.41;83.68;99552.73;1684832;83;20988;-85
2023/01/02 05:53:36;;;;;;;6.55;2.92;;;;;;;9.40;83.90;99549.72;1679464;83;20988;-86
2023/01/02 05:56:15;;;;;;;7.90;3.37;;;;;;;9.42;84.00;99559.63;1681831;83;21002;-87
2023/01/02 05:58:45;;;;;;;6.47;3.65;;;;;;;9.45;84.09;99550.36;1659922;85;20963;-87
2023/01/02 06:01:15;;;;;;;9.38;4.33;;;;;;;9.44;83.98;99542.16;1686852;83;21071;-87
2023/01/02 06:03:51;;;;;;;11.43;5.55;;;;;;;9.44;84.10;99533.48;1690994;83;20974;-87
2023/01/02 06:06:24;;;;;;;8.08;5.08;;;;;;;9.42;84.03;99528.35;1662913;85;20955;-87
2023/01/02 06:08:51;;;;;;;8.95;4.60;;;;;;;9.40;84.06;99522.36;1638970;85;21130;-86
2023/01/02 06:11:18;;;;;;;8.38;4.78;;;;;;;9.36;84.11;99519.52;1640417;86;21007;-86
2023/01/02 06:13:44;;;;;;;10.30;5.50;;;;;;;9.35;84.10;99513.89;1680403;83;21065;-86
2023/01/02 06:16:12;;;;;;;6.78;5.00;;;;;;;9.35;84.30;99508.69;1677650;83;21028;-87
2023/01/02 06:18:38;;;;;;;;;;;;;;;9.36;84.37;99509.09;1682661;83;21012;-85
2023/01/02 06:21:11;;;;;;;9.80;5.65;;;;;;;9.37;84.45;99497.28;1664566;84;20159;-86
2023/01/02 06:23:39;;;;;;;11.43;5.53;;;;;;;9.33;84.25;99494.91;1661262;85;21459;-84
2023/01/02 06:26:09;;;;;;;9.73;4.87;;;;;;;9.34;84.51;99496.58;1657523;84;21023;-84
2023/01/02 06:28:36;;;;;;;9.20;5.35;;;;;;;9.32;84.48;99490.13;1663528;85;20972;-87
2023/01/02 06:31:06;;;;;;;6.35;4.90;;;;;;;9.33;84.46;99484.48;1663486;85;21002;-85
2023/01/02 06:33:33;;;;;;;9.05;5.10;;;;;;;9.32;84.59;99485.38;1670328;85;21017;-86
2023/01/02 06:36:06;;;;;;;8.37;4.60;;;;;;;9.34;84.66;99483.55;1674011;85;20984;-86
2023/01/02 06:38:34;;;;;;;9.53;5.37;;;;;;;9.34;84.66;99483.55;1662774;85;20992;-86
2023/01/02 06:41:03;;;;;;;10.87;5.53;;;;;;;9.33;84.78;99479.27;1662586;85;21066;-87
2023/01/02 06:43:31;;;;;;;10.70;5.58;;;;;;;9.33;84.83;99474.06;1669833;84;21208;-86
2023/01/02 06:46:03;;;;;;;10.32;5.87;;;;;;;9.35;85.01;99473.51;1664063;85;20986;-87
2023/01/02 06:48:33;;;;;;;11.88;5.60;;;;;;;9.35;84.91;99468.30;1659509;84;20986;-85
2023/01/02 06:51:05;;;;;;;9.13;6.03;;;;;;;9.36;85.05;99468.70;1656238;85;21066;-87
2023/01/02 06:53:37;;;;;;;9.80;6.05;;;;;;;9.35;84.95;99467.00;1636179;86;20983;-86
2023/01/02 06:56:05;;;;;;;8.33;5.42;;;;;;;9.33;85.08;99458.42;1681376;84;20998;-86
2023/01/02 06:58:35;;;;;;;9.23;5.92;;;;;;;9.32;85.17;99460.63;1680690;84;21440;-86
2023/01/02 07:01:11;;;;;;;11.73;8.08;;;;;;;9.32;85.33;99454.11;1676125;84;20974;-86
2023/01/02 07:03:38;;;;;;;16.87;9.45;;;;;;;9.31;85.30;99447.22;1642412;85;21460;-85
2023/01/02 07:06:11;;;;;;;11.68;7.83;;;;;;;9.30;85.35;99440.30;1653091;84;20947;-85
2023/01/02 07:08:39;;;;;;;11.65;5.92;;;;;;;9.31;85.56;99440.70;1670305;83;21053;-86
2023/01/02 07:11:09;;;;;;;11.18;5.87;;;;;;;9.31;85.55;99436.80;1677088;83;21038;-85
2023/01/02 07:13:35;;;;;;;13.68;7.05;;;;;;;9.30;85.53;99433.79;1644367;86;20994;-86
2023/01/02 07:16:05;;;;;;;13.37;8.17;;;;;;;9.28;85.70;99432.58;1672939;83;21067;-86
2023/01/02 07:18:32;;;;;;;20.40;14.98;;;;;;;9.31;85.99;99431.13;1677707;83;20923;-86
2023/01/02 07:21:01;;;;;;;29.80;21.25;;;;;;;9.32;85.79;99435.41;1645658;85;21579;-86
2023/01/02 07:23:28;;;;;;;42.85;33.80;;;;;;;9.32;85.91;99429.36;1674076;83;21465;-85
2023/01/02 07:25:57;;;;;;;58.70;52.40;;;;;;;9.34;86.08;99428.84;1667961;83;21027;-85
2023/01/02 07:28:25;;;;;;;90.38;80.75;;;;;;;9.35;86.20;99422.70;1668921;83;21008;-85
2023/01/02 07:30:56;;;;;;;22.60;19.23;;;;;;;9.41;86.35;99423.73;1673952;83;21558;-86
2023/01/02 07:33:23;;;;;;;27.02;23.45;;;;;;;9.45;86.40;99429.18;1669475;83;20949;-88
2023/01/02 07:35:52;;;;;;;30.72;26.52;;;;;;;9.44;86.40;99419.69;1670777;83;21573;-87
2023/01/02 07:38:20;;;;;;;29.23;21.40;;;;;;;9.48;86.53;99425.59;1663678;83;21076;-86
2023/01/02 07:40:47;;;;;;;20.05;14.87;;;;;;;9.52;86.60;99420.59;1670983;83;21215;-85
2023/01/02 07:43:13;;;;;;;21.27;17.55;;;;;;;9.55;86.76;99422.63;1673310;83;21026;-83
2023/01/02 07:45:40;;;;;;;24.37;18.20;;;;;;;9.57;86.67;99425.98;1680869;83;20981;-85
2023/01/02 07:48:07;;;;;;;23.83;14.67;;;;;;;9.60;86.78;99412.80;1682405;83;20914;-84
2023/01/02 07:50:33;;;;;;;15.68;10.90;;;;;;;9.63;86.99;99402.25;1666849;83;20965;-84
2023/01/02 07:53:00;;;;;;;55.97;50.33;;;;;;;9.66;86.92;99396.02;1672878;83;20977;-86
2023/01/02 07:55:27;;;;;;;27.10;23.83;;;;;;;9.69;87.08;99391.11;1675386;83;20964;-88
2023/01/02 07:57:53;;;;;;;32.27;28.57;;;;;;;9.74;87.16;99393.04;1672471;83;20980;-88
2023/01/02 08:00:27;;;;;;;34.43;30.53;;;;;;;9.78;87.25;99388.08;1677137;83;20941;-87
2023/01/02 08:05:52;;;;;;;20.00;13.85;;;;;;;9.85;87.09;99388.14;1598708;86;21069;-85
2023/01/02 08:08:19;;;;;;;15.08;11.95;;;;;;;9.91;87.52;99390.44;1610094;87;21009;-87
2023/01/02 08:10:46;;;;;;;12.10;8.45;;;;;;;10.01;87.69;99376.03;1620643;87;20979;-90
2023/01/02 08:13:12;;;;;;;8.90;6.43;;;;;;;10.07;87.42;99378.32;1615936;86;21038;-86
2023/01/02 08:15:39;;;;;;;10.13;6.90;;;;;;;10.12;87.60;99379.87;1615335;87;21048;-91
2023/01/02 08:18:05;;;;;;;9.08;6.20;;;;;;;10.17;87.57;99373.50;1620754;87;21410;-89
2023/01/02 08:20:32;;;;;;;9.05;6.05;;;;;;;10.21;87.55;99374.17;1610316;86;21469;-84
2023/01/02 08:22:59;;;;;;;8.60;5.50;;;;;;;10.30;87.66;99371.11;1619720;86;21065;-86
2023/01/02 08:25:27;;;;;;;8.73;5.40;;;;;;;10.34;87.92;99363.99;1614082;86;21054;-88
2023/01/02 08:27:54;;;;;;;7.07;5.70;;;;;;;10.44;87.95;99366.02;1615881;86;21059;-89
2023/01/02 08:30:20;;;;;;;12.87;7.07;;;;;;;10.46;87.86;99364.17;1619196;86;20971;-85
2023/01/02 08:32:47;;;;;;;12.65;6.95;;;;;;;10.52;87.95;99363.84;1621568;86;21086;-90
2023/01/02 08:35:13;;;;;;;12.53;6.15;;;;;;;10.59;88.22;99358.33;1615641;86;20970;-87
2023/01/02 08:37:42;;;;;;;13.40;6.60;;;;;;;10.66;88.15;99354.45;1617278;86;20977;-87
2023/01/02 08:40:11;;;;;;;9.20;6.08;;;;;;;10.72;88.07;99352.81;1635632;85;21531;-89
2023/01/02 08:42:52;;;;;;;11.65;6.35;;;;;;;10.79;88.47;99358.09;1651794;85;20995;-90
2023/01/02 08:45:13;;;;;;;10.23;6.72;;;;;;;10.79;88.47;99358.09;1642554;85;21558;-87
2023/01/02 08:47:40;;;;;;;12.65;7.90;;;;;;;10.86;88.17;99357.29;1662472;84;21020;-88
2023/01/02 08:50:11;;;;;;;15.40;7.57;;;;;;;10.86;88.17;99357.29;1655528;84;21485;-87
2023/01/02 08:52:38;;;;;;;13.03;8.15;;;;;;;10.83;88.03;99353.07;1642612;85;21579;-90
2023/01/02 08:55:21;;;;;;;16.43;7.87;;;;;;;10.81;88.06;99353.64;1651653;85;21620;-86
2023/01/02 08:57:48;;;;;;;11.65;7.62;;;;;;;10.78;88.01;99353.78;1652798;85;21002;-91
2023/01/02 09:00:15;;;;;;;14.35;8.55;;;;;;;10.77;88.09;99354.72;1653234;85;20968;-91
2023/01/02 09:02:42;;;;;;;15.65;8.35;;;;;;;10.76;88.06;99358.27;1639818;85;21467;-91
2023/01/02 09:05:09;;;;;;;12.07;7.93;;;;;;;10.76;88.13;99353.05;1624786;86;21041;-91
2023/01/02 09:07:35;;;;;;;14.83;8.25;;;;;;;10.75;88.06;99346.11;1624052;86;22524;-90
2023/01/02 09:10:02;;;;;;;15.05;8.50;;;;;;;10.75;88.12;99343.50;1643026;85;21461;-89
2023/01/02 09:12:29;;;;;;;13.88;9.05;;;;;;;10.81;88.31;99337.97;1675496;84;21011;-89
2023/01/02 09:14:56;;;;;;;15.32;9.60;;;;;;;10.82;88.07;99331.81;1673658;85;20969;-90
2023/01/02 09:17:23;;;;;;;13.50;8.83;;;;;;;10.81;88.12;99341.89;1678432;84;21011;-90
2023/01/02 09:19:49;;;;;;;13.95;9.00;;;;;;;10.83;88.08;99334.80;1675560;83;20932;-91
2023/01/02 09:22:16;;;;;;;14.70;8.60;;;;;;;10.84;87.91;99333.88;1633632;85;20974;-89
2023/01/02 09:24:43;;;;;;;15.00;8.10;;;;;;;10.82;87.94;99329.20;1680832;83;20978;-90
2023/01/02 09:27:10;;;;;;;14.53;9.10;;;;;;;10.81;87.92;99318.39;1678016;83;21018;-90
2023/01/02 09:29:37;;;;;;;12.10;8.25;;;;;;;10.90;88.18;99315.73;1679125;83;21049;-89
2023/01/02 09:32:03;;;;;;;14.50;9.13;;;;;;;10.90;88.18;99315.73;1678622;83;21019;-90
2023/01/02 09:34:30;;;;;;;12.97;8.57;;;;;;;10.94;88.18;99307.62;1639274;85;21073;-90
2023/01/02 09:36:56;;;;;;;16.97;9.50;;;;;;;11.00;88.11;99297.77;1644525;85;21534;-91
2023/01/02 09:39:23;;;;;;;14.93;8.97;;;;;;;11.03;88.14;99289.75;1679370;83;20997;-88
2023/01/02 09:41:56;;;;;;;15.17;8.70;;;;;;;11.10;88.30;99293.72;1679054;84;20978;-90
2023/01/02 09:44:31;;;;;;;14.33;10.05;;;;;;;11.14;88.14;99292.60;1677648;83;21230;-90
2023/01/02 09:47:03;;;;;;;13.43;9.25;;;;;;;11.17;88.21;99280.67;1679930;83;21578;-87
2023/01/02 09:49:37;;;;;;;18.40;9.48;;;;;;;11.22;88.17;99291.70;1679857;83;20993;-87
2023/01/02 09:52:07;;;;;;;14.40;9.78;;;;;;;11.24;88.08;99288.55;1679293;83;20999;-88
2023/01/02 09:54:33;;;;;;;13.95;9.30;;;;;;;11.28;88.16;99291.35;1678232;83;20986;-86
2023/01/02 09:57:30;;;;;;;17.07;9.63;;;;;;;11.26;87.99;99284.09;1682899;83;21026;-89
2023/01/02 10:00:14;;;;;;;16.52;9.93;;;;;;;11.18;87.94;99283.20;1680982;83;20958;-89
2023/01/02 10:03:15;;;;;;;14.28;9.23;;;;;;;11.15;88.11;99276.85;1677893;83;21482;-88
2023/01/02 10:06:08;;;;;;;13.65;9.35;;;;;;;11.18;88.05;99274.53;1673827;83;20980;-89
2023/01/02 10:08:51;;;;;;;16.67;10.28;;;;;;;11.18;88.01;99268.00;1674195;84;20976;-88
2023/01/02 10:11:26;;;;;;;14.05;8.23;;;;;;;11.15;87.85;99259.03;1674529;84;20960;-88
2023/01/02 10:14:04;;;;;;;12.55;9.20;;;;;;;11.18;88.08;99260.16;1675679;84;21463;-88
2023/01/02 10:16:35;;;;;;;13.72;9.10;;;;;;;11.21;88.05;99257.37;1672180;84;21095;-88
2023/01/02 10:19:09;;;;;;;13.20;9.38;;;;;;;11.25;87.86;99261.48;1631228;86;20984;-89
2023/01/02 10:21:39;;;;;;;14.63;9.80;;;;;;;11.26;87.88;99254.03;1625247;86;21006;-88
2023/01/02 10:24:13;;;;;;;14.38;9.33;;;;;;;11.24;87.80;99254.58;1677472;83;21541;-91
2023/01/02 10:26:45;;;;;;;12.47;9.93;;;;;;;11.25;87.79;99255.41;1627249;85;21003;-91
2023/01/02 10:29:47;;;;;;;17.62;10.10;;;;;;;11.21;87.73;99252.14;1673750;84;21411;-90
2023/01/02 10:32:20;;;;;;;16.00;10.08;;;;;;;11.19;87.51;99226.55;1649215;85;21065;-88
2023/01/02 10:35:09;;;;;;;15.05;10.20;;;;;;;11.19;87.75;99227.86;1645218;85;21015;-89
2023/01/02 10:37:36;;;;;;;14.30;9.40;;;;;;;11.16;87.74;99222.81;1681446;83;21041;-86
2023/01/02 10:40:03;;;;;;;13.78;9.13;;;;;;;11.14;87.73;99220.28;1675088;83;20986;-88
2023/01/02 10:42:31;;;;;;;;;;;;;;;11.20;87.92;99224.30;1688243;83;21004;-92
2023/01/02 10:44:58;;;;;;;15.93;9.03;;;;;;;11.23;87.67;99224.16;1678125;83;20155;-96
2023/01/02 10:47:36;;;;;;;13.32;8.70;;;;;;;11.20;87.65;99224.30;1685196;83;20980;-93
2023/01/02 10:50:18;;;;;;;16.40;9.78;;;;;;;11.24;87.69;99225.83;1681680;83;21004;-91
2023/01/02 10:53:21;;;;;;;15.80;9.55;;;;;;;11.33;87.73;99227.91;1691707;83;21004;-88
2023/01/02 10:55:48;;;;;;;16.55;9.28;;;;;;;11.38;87.88;99221.95;1682199;83;21003;-94
2023/01/02 10:58:19;;;;;;;13.90;8.45;;;;;;;11.54;87.72;99231.48;1683152;83;21055;-92
2023/01/02 11:00:53;;;;;;;13.35;8.18;;;;;;;11.56;87.47;99234.86;1678593;83;20973;-93
2023/01/02 11:03:24;;;;;;;15.88;9.53;;;;;;;11.56;87.58;99228.33;1676043;82;21029;-92
2023/01/02 11:06:13;;;;;;;12.70;8.80;;;;;;;11.60;87.62;99224.61;1669736;84;21097;-89
2023/01/02 11:11:56;;;;;;;13.58;9.53;;;;;;;11.82;87.68;99221.56;1558014;89;21690;-92
2023/01/02 11:14:32;;;;;;;12.23;8.80;;;;;;;11.85;87.49;99217.01;1585798;89;21077;-90
2023/01/02 11:20:58;;;;;;;17.42;11.25;;;;;;;11.85;87.33;99214.39;1495632;94;21138;-92
2023/01/02 11:23:25;;;;;;;13.08;8.33;;;;;;;11.86;87.31;99215.23;1488559;95;21057;-88
2023/01/02 11:25:53;;;;;;;12.25;8.08;;;;;;;11.95;87.57;99212.52;1489445;95;21020;-91
2023/01/02 11:28:25;;;;;;;13.25;7.90;;;;;;;12.01;87.41;99205.59;1496811;94;21511;-90
2023/01/02 11:31:02;;;;;;;15.18;9.75;;;;;;;12.01;87.24;99200.36;1495726;94;21047;-90
2023/01/02 11:33:34;;;;;;;13.67;7.60;;;;;;;12.11;87.56;99196.25;1490205;95;21125;-84
2023/01/02 11:36:18;;;;;;;16.25;7.72;;;;;;;12.19;87.37;99191.38;1496916;94;21032;-90
2023/01/02 11:38:57;;;;;;;17.00;7.08;;;;;;;12.24;87.32;99195.88;1518694;93;21562;-87
2023/01/02 11:44:53;;;;;;;9.93;6.65;;;;;;;12.35;87.12;99159.00;1497692;93;21601;-87
2023/01/02 11:47:33;;;;;;;9.18;6.22;;;;;;;12.34;86.91;99167.80;1454422;96;21631;-87
2023/01/02 11:50:00;;;;;;;13.45;6.97;;;;;;;12.34;86.80;99167.80;1490358;93;21112;-92
2023/01/02 11:52:43;;;;;;;11.65;7.22;;;;;;;12.34;86.79;99175.66;1493192;94;21080;-91
2023/01/02 11:55:36;;;;;;;11.30;7.50;;;;;;;12.33;86.63;99173.98;1492522;93;21040;-91
2023/01/02 11:58:27;;;;;;;10.53;7.55;;;;;;;12.35;86.88;99170.77;1525399;90;21157;-87
2023/01/02 12:01:01;;;;;;;18.55;11.68;;;;;;;12.40;86.70;99172.64;1544758;91;21003;-90
2023/01/02 12:03:49;;;;;;;;;;;;;;;;;;;;;
2023/01/02 12:06:44;;;;;;;10.10;7.50;;;;;;;12.39;86.34;99170.97;1372298;99;21113;-87
2023/01/02 12:09:55;;;;;;;14.47;7.78;;;;;;;12.42;86.36;99165.54;1416366;98;21165;-89
2023/01/02 12:13:12;;;;;;;12.60;7.62;;;;;;;12.41;86.17;99170.41;1418147;99;21051;-86
2023/01/02 12:16:10;;;;;;;20.08;11.53;;;;;;;12.36;86.03;99164.63;1416998;99;21065;-87